createdAt,value
2023-08-08T00:03:27.247Z,61.13
2023-08-08T00:08:30.457Z,58.53
2023-08-08T00:13:33.353Z,62.40
2023-08-08T00:18:36.121Z,57.92
2023-08-08T00:23:38.951Z,59.93
2023-08-08T00:28:41.777Z,61.12
2023-08-08T00:33:44.609Z,57.48
2023-08-08T00:38:47.348Z,61.10
2023-08-08T00:43:51.447Z,61.39
2023-08-08T00:48:54.453Z,55.25
2023-08-08T00:53:57.374Z,59.57
2023-08-08T00:59:00.195Z,62.25
2023-08-08T01:04:03.334Z,57.27
2023-08-08T01:09:30.031Z,59.25
2023-08-08T01:14:35.270Z,61.64
2023-08-08T01:19:38.657Z,59.56
2023-08-08T01:24:42.299Z,58.12
2023-08-08T01:29:45.136Z,60.92
2023-08-08T01:34:48.290Z,61.20
2023-08-08T01:39:52.111Z,58.62
2023-08-08T01:44:56.745Z,60.93
2023-08-08T01:49:59.595Z,60.50
2023-08-08T01:55:02.792Z,55.98
2023-08-08T02:00:07.029Z,60.46
2023-08-08T02:05:09.976Z,60.69
2023-08-08T02:10:12.782Z,56.91
2023-08-08T02:15:15.657Z,61.71
2023-08-08T02:20:19.372Z,59.82
2023-08-08T02:25:22.293Z,58.45
2023-08-08T02:30:25.194Z,61.45
2023-08-08T02:35:28.284Z,58.50
2023-08-08T02:40:31.166Z,62.02
2023-08-08T02:45:34.085Z,58.29
2023-08-08T02:50:36.859Z,59.89
2023-08-08T02:55:39.736Z,61.10
2023-08-08T03:00:42.549Z,57.86
2023-08-08T03:05:47.166Z,62.06
2023-08-08T03:10:50.930Z,57.94
2023-08-08T03:15:53.848Z,61.23
2023-08-08T03:20:56.979Z,59.62
2023-08-08T03:25:59.813Z,59.42
2023-08-08T03:31:04.510Z,62.61
2023-08-08T03:36:07.730Z,57.28
2023-08-08T03:41:10.970Z,61.83
2023-08-08T03:46:13.951Z,58.25
2023-08-08T03:51:16.715Z,61.36
2023-08-08T03:56:19.593Z,60.63
2023-08-08T04:01:22.635Z,59.03
2023-08-08T04:06:25.641Z,62.99
2023-08-08T04:11:28.619Z,56.64
2023-08-08T04:16:31.393Z,59.98
2023-08-08T04:21:34.322Z,61.31
2023-08-08T04:26:37.060Z,57.08
2023-08-08T04:31:39.981Z,62.40
2023-08-08T04:36:42.825Z,57.77
2023-08-08T04:41:45.564Z,58.65
2023-08-08T04:46:48.616Z,62.10
2023-08-08T04:51:51.551Z,57.42
2023-08-08T04:56:54.377Z,59.04
2023-08-08T05:01:57.326Z,61.91
2023-08-08T05:07:00.187Z,57.75
2023-08-08T05:12:03.644Z,60.72
2023-08-08T05:17:07.379Z,60.96
2023-08-08T05:22:10.449Z,57.12
2023-08-08T05:27:13.289Z,61.13
2023-08-08T05:32:16.069Z,62.00
2023-08-08T05:37:18.984Z,56.33
2023-08-08T05:42:21.962Z,58.75
2023-08-08T05:47:24.972Z,61.26
2023-08-08T05:52:27.887Z,59.50
2023-08-08T05:57:30.767Z,57.96
2023-08-08T06:02:33.657Z,59.65
2023-08-08T06:07:36.611Z,60.94
2023-08-08T06:12:39.544Z,61.54
2023-08-08T06:17:42.658Z,61.48
2023-08-08T06:22:45.679Z,61.98
2023-08-08T06:27:50.258Z,61.18
2023-08-08T06:32:53.379Z,61.76
2023-08-08T06:37:56.382Z,60.57
2023-08-08T06:42:59.391Z,59.71
2023-08-08T06:48:02.413Z,58.68
2023-08-08T06:53:06.025Z,59.83
2023-08-08T06:58:09.047Z,59.53
2023-08-08T07:03:12.331Z,59.32
2023-08-08T07:08:16.553Z,59.51
2023-08-08T07:13:19.559Z,59.24
2023-08-08T07:18:22.869Z,58.87
2023-08-08T07:23:28.193Z,57.83
2023-08-08T07:28:45.637Z,56.60
2023-08-08T07:33:48.596Z,54.96
2023-08-08T07:38:51.569Z,55.16
2023-08-08T07:43:54.649Z,55.93
2023-08-08T07:49:00.368Z,55.71
2023-08-08T07:54:03.620Z,55.25
2023-08-08T07:59:07.514Z,55.22
2023-08-08T08:04:10.485Z,55.67
2023-08-08T08:09:14.074Z,55.59
2023-08-08T08:14:17.084Z,55.69
2023-08-08T08:19:21.012Z,54.48
2023-08-08T08:24:24.635Z,54.58
2023-08-08T08:29:27.611Z,53.96
2023-08-08T08:34:30.493Z,54.67
2023-08-08T08:39:33.358Z,54.44
2023-08-08T08:44:37.051Z,53.70
2023-08-08T08:49:40.504Z,53.80
2023-08-08T08:54:43.883Z,52.82
2023-08-08T08:59:46.853Z,53.13
2023-08-08T09:04:49.888Z,53.56
2023-08-08T09:09:52.756Z,54.01
2023-08-08T09:14:57.776Z,53.20
2023-08-08T09:20:01.220Z,52.18
2023-08-08T09:25:05.097Z,51.67
2023-08-08T09:30:10.168Z,50.09
2023-08-08T09:35:13.465Z,48.01
2023-08-08T09:40:18.664Z,46.60
2023-08-08T09:45:24.893Z,46.37
2023-08-08T09:50:29.811Z,47.01
2023-08-08T09:55:34.094Z,45.11
2023-08-08T10:00:37.484Z,47.21
2023-08-08T10:05:40.702Z,49.12
2023-08-08T10:10:49.514Z,49.59
2023-08-08T10:15:53.812Z,47.52
2023-08-08T10:20:59.056Z,46.73
2023-08-08T10:26:03.814Z,48.80
2023-08-08T10:31:09.748Z,49.29
2023-08-08T10:36:14.624Z,47.28
2023-08-08T10:41:19.892Z,43.15
2023-08-08T10:46:34.933Z,43.55
2023-08-08T10:51:40.151Z,43.70
2023-08-08T10:56:52.966Z,44.51
2023-08-08T11:01:58.126Z,43.74
2023-08-08T11:07:02.052Z,43.07
2023-08-08T11:12:06.066Z,42.17
2023-08-08T11:17:09.021Z,43.03
2023-08-08T11:22:14.979Z,43.35
2023-08-08T11:27:42.559Z,43.65
2023-08-08T11:32:40.869Z,43.36
2023-08-08T11:37:47.756Z,43.28
2023-08-08T11:42:52.726Z,44.35
2023-08-08T11:48:04.833Z,45.31
2023-08-08T11:53:08.996Z,45.57
2023-08-08T11:58:16.118Z,45.11
2023-08-08T12:03:21.907Z,45.32
2023-08-08T12:08:27.379Z,45.25
2023-08-08T12:13:32.821Z,44.29
2023-08-08T12:18:39.068Z,42.70
2023-08-08T12:23:42.141Z,43.93
2023-08-08T12:28:45.610Z,42.89
2023-08-08T12:33:50.080Z,42.17
2023-08-08T12:38:53.091Z,42.98
2023-08-08T12:43:56.563Z,43.12
2023-08-08T12:48:59.371Z,43.02
2023-08-08T12:54:02.245Z,43.30
2023-08-08T12:59:05.335Z,43.61
2023-08-08T13:09:14.117Z,42.53
2023-08-08T13:14:17.568Z,42.51
2023-08-08T13:19:22.541Z,42.81
2023-08-08T13:24:25.406Z,43.69
2023-08-08T13:29:28.440Z,43.48
2023-08-08T13:34:31.439Z,43.11
2023-08-08T13:39:34.463Z,46.78
2023-08-08T13:44:38.684Z,55.00
2023-08-08T13:49:45.743Z,57.87
2023-08-08T13:54:50.408Z,65.79
2023-08-08T13:59:54.544Z,59.66
2023-08-08T14:04:57.756Z,54.53
2023-08-08T14:10:01.168Z,60.43
2023-08-08T14:15:07.927Z,62.67
2023-08-08T14:20:12.602Z,57.57
2023-08-08T14:25:16.475Z,59.02
2023-08-08T14:30:19.620Z,61.49
2023-08-08T14:35:22.700Z,53.91
2023-08-08T14:40:25.694Z,54.40
2023-08-08T14:45:29.319Z,52.71
2023-08-08T14:50:33.299Z,54.57
2023-08-08T14:55:36.198Z,55.06
2023-08-08T15:00:39.052Z,55.25
2023-08-08T15:05:42.318Z,56.42
2023-08-08T15:10:45.971Z,57.28
2023-08-08T15:15:49.108Z,58.01
2023-08-08T15:20:52.681Z,58.20
2023-08-08T15:25:56.528Z,61.76
2023-08-08T15:30:59.494Z,49.71
2023-08-08T15:36:02.386Z,47.11
2023-08-08T15:41:05.234Z,46.47
2023-08-08T15:46:09.455Z,48.39
2023-08-08T15:51:12.338Z,48.15
2023-08-08T15:56:15.250Z,50.22
2023-08-08T16:01:18.203Z,51.69
2023-08-08T16:06:21.141Z,53.35
2023-08-08T16:11:24.006Z,54.48
2023-08-08T16:16:26.955Z,54.29
2023-08-08T16:21:29.919Z,54.52
2023-08-08T16:26:33.111Z,52.24
2023-08-08T16:31:36.171Z,50.08
2023-08-08T16:36:41.240Z,49.51
2023-08-08T16:41:44.646Z,49.39
2023-08-08T16:46:48.373Z,50.01
2023-08-08T16:51:51.645Z,50.76
2023-08-08T16:56:56.870Z,50.96
2023-08-08T17:02:05.681Z,47.91
2023-08-08T17:07:11.804Z,44.03
2023-08-08T17:12:20.757Z,40.75
2023-08-08T17:17:27.305Z,38.60
2023-08-08T17:22:31.188Z,38.30
2023-08-08T17:27:36.997Z,36.62
2023-08-08T17:32:45.790Z,36.91
2023-08-08T17:37:49.357Z,38.13
2023-08-08T17:42:52.231Z,40.44
2023-08-08T17:47:55.141Z,42.83
2023-08-08T17:52:58.336Z,44.78
2023-08-08T17:58:01.177Z,46.21
2023-08-08T18:03:04.435Z,48.34
2023-08-08T18:08:07.501Z,50.36
2023-08-08T18:13:10.373Z,53.01
2023-08-08T18:18:13.306Z,54.44
2023-08-08T18:23:16.161Z,53.58
2023-08-08T18:28:19.945Z,57.49
2023-08-08T18:33:22.989Z,59.21
2023-08-08T18:38:25.865Z,59.12
2023-08-08T18:43:29.255Z,60.18
2023-08-08T18:48:32.759Z,60.25
2023-08-08T18:53:36.571Z,58.86
2023-08-08T18:58:39.935Z,60.10
2023-08-08T19:03:42.989Z,70.66
2023-08-08T19:08:46.213Z,63.77
2023-08-08T19:13:49.807Z,53.66
2023-08-08T19:18:54.335Z,54.73
2023-08-08T19:23:59.174Z,55.79
2023-08-08T19:29:04.068Z,57.82
2023-08-08T19:34:07.908Z,58.48
2023-08-08T19:39:11.137Z,59.19
2023-08-08T19:44:13.909Z,61.18
2023-08-08T19:49:16.790Z,63.23
2023-08-08T19:54:19.645Z,60.55
2023-08-08T19:59:22.691Z,55.87
2023-08-08T20:04:25.596Z,57.74
2023-08-08T20:09:28.363Z,59.83
2023-08-08T20:14:32.249Z,65.51
2023-08-08T20:19:35.247Z,62.01
2023-08-08T20:24:38.109Z,54.96
2023-08-08T20:29:40.886Z,58.05
2023-08-08T20:34:43.773Z,57.87
2023-08-08T20:39:47.556Z,60.17
2023-08-08T20:44:50.887Z,68.57
2023-08-08T20:50:01.432Z,58.23
2023-08-08T20:55:06.216Z,54.73
2023-08-08T21:00:11.707Z,57.15
2023-08-08T21:05:19.165Z,59.15
2023-08-08T21:10:23.032Z,60.11
2023-08-08T21:15:26.765Z,64.23
2023-08-08T21:20:32.089Z,63.52
2023-08-08T21:25:35.662Z,54.00
2023-08-08T21:30:43.211Z,55.93
2023-08-08T21:35:50.506Z,59.12
2023-08-08T21:40:53.928Z,63.01
2023-08-08T21:45:56.828Z,56.90
2023-08-08T21:50:59.772Z,58.64
2023-08-08T21:56:02.666Z,60.39
2023-08-08T22:01:06.637Z,65.73
2023-08-08T22:06:09.620Z,57.00
2023-08-08T22:11:12.598Z,56.77
2023-08-08T22:16:15.684Z,61.64
2023-08-08T22:21:18.642Z,60.39
2023-08-08T22:26:21.551Z,55.84
2023-08-08T22:31:24.669Z,59.56
2023-08-08T22:36:28.222Z,60.76
2023-08-08T22:41:31.074Z,61.57
2023-08-08T22:46:34.544Z,56.21
2023-08-08T22:51:44.721Z,60.21
2023-08-08T22:56:49.104Z,63.05
2023-08-08T23:01:53.140Z,56.07
2023-08-08T23:06:56.117Z,59.47
2023-08-08T23:11:58.925Z,62.66
2023-08-08T23:17:02.085Z,58.13
2023-08-08T23:22:05.689Z,57.87
2023-08-08T23:27:08.527Z,60.55
2023-08-08T23:32:11.430Z,64.45
2023-08-08T23:37:20.792Z,57.31
2023-08-08T23:42:24.165Z,60.99
2023-08-08T23:47:27.065Z,64.26
2023-08-08T23:52:29.858Z,57.86
2023-08-08T23:57:32.756Z,60.46
